Shorewood, Minnesota
Current Conditions -  °F | °C
As of 10:53 PM on Friday 24 Oct 2014 (Local Time) from KFCM Reporting Station
Clear Clear  
Wind Chill: 57°   Ceiling: Unl
Heat Index: 57°   Visibility: 10mi
Dew Point: 50°   Wind: 8mph
Humidity: 77%   Direction: 240°WSW
Pressure: 29.86"   Gusts: NA
Location:  44.9465°N, 93.6803°W
Report Text: KFCM 250353Z AUTO 24007KT 10SM CLR 14/10 A2986 RMK AO2 SLP113 T01390100
Loading
Personal Weather Stations






























Interactive Weather Map
Tropical Storm Tracking
New forecast layout! Learn more

10-Day Weather Forecast

Advertisements
Track Severe Weather on mobile